createdAt,value
2019-03-03T05:02:59.679Z,5.10
2019-03-03T05:05:36.471Z,4.80
2019-03-03T05:08:42.686Z,4.83
2019-03-03T05:11:32.537Z,4.37
2019-03-03T05:14:19.909Z,4.73
2019-03-03T05:16:55.248Z,4.77
2019-03-03T05:19:42.443Z,4.60
2019-03-03T05:22:11.460Z,4.53
2019-03-03T05:24:40.508Z,4.80
2019-03-03T05:27:09.356Z,4.53
2019-03-03T05:29:38.408Z,4.77
2019-03-03T05:32:07.180Z,4.40
2019-03-03T05:34:36.202Z,4.33
2019-03-03T05:37:05.211Z,4.60
2019-03-03T05:39:33.996Z,4.70
2019-03-03T05:42:03.033Z,4.27
2019-03-03T05:44:32.049Z,4.30
2019-03-03T05:47:00.853Z,4.23
2019-03-03T05:49:29.702Z,4.10
2019-03-03T05:51:59.000Z,4.20
2019-03-03T05:54:27.791Z,4.10
2019-03-03T05:56:56.679Z,4.53
2019-03-03T05:59:25.453Z,4.50
2019-03-03T06:01:54.484Z,4.20
2019-03-03T06:04:23.828Z,4.20
2019-03-03T06:06:52.675Z,4.00
2019-03-03T06:09:22.516Z,4.13
2019-03-03T06:11:51.296Z,4.10
2019-03-03T06:14:20.620Z,3.90
2019-03-03T06:16:49.659Z,3.90
2019-03-03T06:19:19.170Z,4.17
2019-03-03T06:21:48.230Z,4.33
2019-03-03T06:24:17.334Z,4.10
2019-03-03T06:26:46.377Z,4.17
2019-03-03T06:29:15.233Z,3.90
2019-03-03T06:31:44.128Z,3.93
2019-03-03T06:34:12.920Z,3.93
2019-03-03T06:36:41.696Z,3.93
2019-03-03T06:39:10.483Z,4.40
2019-03-03T06:41:39.249Z,4.30
2019-03-03T06:44:08.275Z,4.10
2019-03-03T06:46:37.596Z,4.27
2019-03-03T06:49:06.479Z,5.03
2019-03-03T06:51:35.764Z,4.23
2019-03-03T06:54:04.560Z,4.73
2019-03-03T06:56:33.608Z,4.70
2019-03-03T06:59:02.889Z,4.60
2019-03-03T07:01:31.987Z,4.50
2019-03-03T07:04:01.057Z,4.50
2019-03-03T07:06:30.172Z,4.93
2019-03-03T07:08:59.180Z,4.53
2019-03-03T07:11:28.210Z,4.40
2019-03-03T07:13:56.983Z,4.83
2019-03-03T07:16:26.484Z,5.00
2019-03-03T07:18:55.402Z,4.93
2019-03-03T07:21:24.963Z,5.27
2019-03-03T07:23:53.747Z,5.83
2019-03-03T07:26:22.633Z,6.07
2019-03-03T07:28:52.222Z,5.50
2019-03-03T07:31:21.564Z,5.20
2019-03-03T07:33:54.369Z,5.00
2019-03-03T07:36:23.453Z,5.40
2019-03-03T07:38:52.732Z,5.50
2019-03-03T07:41:22.019Z,5.23
2019-03-03T07:43:50.800Z,5.10
2019-03-03T07:46:19.596Z,4.83
2019-03-03T07:48:48.945Z,5.40
2019-03-03T07:51:18.057Z,4.60
2019-03-03T07:53:47.099Z,4.90
2019-03-03T07:56:16.373Z,4.67
2019-03-03T07:58:45.404Z,4.50
2019-03-03T08:01:14.176Z,4.50
2019-03-03T08:03:42.999Z,4.33
2019-03-03T08:06:12.625Z,4.77
2019-03-03T08:08:41.637Z,4.30
2019-03-03T08:11:10.817Z,4.40
2019-03-03T08:13:39.599Z,4.33
2019-03-03T08:16:10.773Z,4.20
2019-03-03T08:18:39.295Z,4.27
2019-03-03T08:21:08.662Z,4.33
2019-03-03T08:23:37.697Z,4.17
2019-03-03T08:26:07.004Z,4.67
2019-03-03T08:28:36.105Z,4.03
2019-03-03T08:31:05.488Z,4.37
2019-03-03T08:33:34.633Z,4.17
2019-03-03T08:36:03.849Z,4.33
2019-03-03T08:38:32.984Z,3.93
2019-03-03T08:41:01.867Z,3.97
2019-03-03T08:43:34.999Z,4.33
2019-03-03T08:46:19.237Z,3.90
2019-03-03T08:48:53.265Z,3.80
2019-03-03T08:51:43.928Z,3.90
2019-03-03T08:54:34.964Z,3.80
2019-03-03T08:57:31.959Z,4.17
2019-03-03T09:00:22.648Z,3.90
2019-03-03T09:03:00.847Z,3.53
2019-03-03T09:05:40.277Z,3.83
2019-03-03T09:08:30.208Z,3.67
2019-03-03T09:11:24.396Z,3.60
2019-03-03T09:14:05.103Z,4.00
2019-03-03T09:16:51.948Z,3.60
2019-03-03T09:19:40.540Z,3.60
2019-03-03T09:22:28.560Z,3.70
2019-03-03T09:25:10.318Z,3.93
2019-03-03T09:27:51.047Z,3.70
2019-03-03T09:30:32.812Z,3.40
2019-03-03T09:33:15.287Z,3.50
2019-03-03T09:35:55.449Z,3.83
2019-03-03T09:38:46.768Z,3.40
2019-03-03T09:41:22.937Z,3.70
2019-03-03T09:43:59.552Z,3.53
2019-03-03T09:46:46.360Z,3.60
2019-03-03T09:49:34.604Z,3.43
2019-03-03T09:52:35.187Z,3.60
2019-03-03T09:55:29.895Z,3.40
2019-03-03T09:58:12.901Z,3.43
2019-03-03T10:00:57.808Z,5.73
2019-03-03T10:03:45.941Z,3.00
2019-03-03T10:06:36.752Z,3.03
2019-03-03T10:09:21.744Z,3.50
2019-03-03T10:11:58.297Z,3.10
2019-03-03T10:14:38.735Z,3.10
2019-03-03T10:17:25.800Z,3.57
2019-03-03T10:20:05.619Z,3.67
2019-03-03T10:22:56.286Z,3.20
2019-03-03T10:25:35.067Z,3.60
2019-03-03T10:28:23.599Z,3.30
2019-03-03T10:31:11.766Z,3.40
2019-03-03T10:33:56.032Z,3.57
2019-03-03T10:36:49.024Z,3.37
2019-03-03T10:39:23.332Z,3.20
2019-03-03T10:42:08.351Z,3.60
2019-03-03T10:44:46.275Z,3.70
2019-03-03T10:47:20.927Z,3.30
2019-03-03T10:49:56.133Z,3.20
2019-03-03T10:52:43.396Z,3.10
2019-03-03T10:55:17.944Z,3.37
2019-03-03T10:57:55.780Z,3.47
2019-03-03T11:00:35.498Z,3.23
2019-03-03T11:03:23.583Z,3.50
2019-03-03T11:06:07.095Z,3.10
2019-03-03T11:08:48.356Z,3.40
2019-03-03T11:11:25.563Z,3.13
2019-03-03T11:14:10.464Z,3.70
2019-03-03T11:16:55.460Z,3.30
2019-03-03T11:19:52.472Z,3.00
2019-03-03T11:22:30.294Z,3.50
2019-03-03T11:25:14.507Z,3.37
2019-03-03T11:27:55.345Z,2.93
2019-03-03T11:30:44.061Z,3.10
2019-03-03T11:33:35.972Z,3.10
2019-03-03T11:36:28.102Z,3.40
2019-03-03T11:39:19.566Z,3.37
2019-03-03T11:42:12.847Z,3.10
2019-03-03T11:45:01.838Z,3.50
2019-03-03T11:48:03.899Z,3.00
2019-03-03T11:50:37.657Z,3.00
2019-03-03T11:53:29.242Z,3.30
2019-03-03T11:56:16.066Z,3.20
2019-03-03T11:59:07.451Z,3.17
2019-03-03T12:01:59.267Z,2.90
2019-03-03T12:04:52.680Z,3.20
2019-03-03T12:07:55.960Z,3.33
2019-03-03T12:10:37.539Z,3.30
2019-03-03T12:13:14.611Z,3.00
2019-03-03T12:16:06.211Z,3.50
2019-03-03T12:18:50.293Z,3.03
2019-03-03T12:21:27.341Z,2.97
2019-03-03T12:24:24.646Z,3.60
2019-03-03T12:27:15.891Z,2.87
2019-03-03T12:30:03.215Z,3.10
2019-03-03T12:32:45.056Z,3.20
2019-03-03T12:35:23.768Z,2.87
2019-03-03T12:37:59.056Z,3.40
2019-03-03T12:40:48.141Z,3.07
2019-03-03T12:43:26.658Z,2.80
2019-03-03T12:46:20.888Z,2.83
2019-03-03T12:49:03.129Z,3.00
2019-03-03T12:51:47.448Z,3.10
2019-03-03T12:54:40.034Z,3.20
2019-03-03T12:57:37.116Z,3.20
2019-03-03T13:00:15.096Z,2.93
2019-03-03T13:03:06.329Z,2.73
2019-03-03T13:05:45.129Z,2.97
2019-03-03T13:08:33.324Z,3.10
2019-03-03T13:11:19.976Z,2.90
2019-03-03T13:14:06.530Z,2.90
2019-03-03T13:17:06.655Z,3.00
2019-03-03T13:19:49.588Z,3.27
2019-03-03T13:22:29.720Z,2.97
2019-03-03T13:25:15.197Z,2.97
2019-03-03T13:28:01.545Z,2.67
2019-03-03T13:30:52.261Z,2.87
2019-03-03T13:33:34.491Z,3.30
2019-03-03T13:36:18.184Z,3.10
2019-03-03T13:39:14.929Z,2.80
2019-03-03T13:42:02.898Z,3.00
2019-03-03T13:44:32.065Z,2.87
2019-03-03T13:47:01.159Z,3.20
2019-03-03T13:49:29.948Z,2.90
2019-03-03T13:51:58.791Z,3.30
2019-03-03T13:54:27.609Z,3.10
2019-03-03T13:56:56.427Z,3.20
2019-03-03T13:59:25.375Z,3.07
2019-03-03T14:01:54.639Z,3.10
2019-03-03T14:04:23.582Z,3.80
2019-03-03T14:06:52.717Z,3.40
2019-03-03T14:09:21.830Z,2.63
2019-03-03T14:11:51.260Z,3.20
2019-03-03T14:14:20.611Z,2.90
2019-03-03T14:16:49.886Z,3.27
2019-03-03T14:19:19.196Z,3.23
2019-03-03T14:21:48.050Z,3.17
2019-03-03T14:24:17.004Z,4.03
2019-03-03T14:26:46.531Z,3.30
2019-03-03T14:29:15.609Z,3.00
2019-03-03T14:31:44.552Z,3.30
2019-03-03T14:34:13.715Z,3.30
2019-03-03T14:36:43.068Z,3.50
2019-03-03T14:39:12.180Z,2.77
2019-03-03T14:41:41.560Z,3.17
2019-03-03T14:44:10.418Z,3.27
2019-03-03T14:46:39.459Z,3.37
2019-03-03T14:49:08.608Z,3.60
2019-03-03T14:51:38.028Z,3.00
2019-03-03T14:54:06.844Z,3.07
2019-03-03T14:56:36.012Z,3.30
2019-03-03T14:59:04.935Z,3.43
2019-03-03T15:01:34.165Z,3.50
2019-03-03T15:04:03.108Z,3.13
2019-03-03T15:06:32.484Z,3.40
2019-03-03T15:09:01.883Z,3.63
2019-03-03T15:11:30.832Z,3.17
2019-03-03T15:13:59.616Z,3.90
2019-03-03T15:16:28.400Z,3.57
2019-03-03T15:18:57.267Z,3.30
2019-03-03T15:21:26.696Z,3.70
2019-03-03T15:23:55.577Z,3.47
2019-03-03T15:26:24.355Z,3.20
2019-03-03T15:28:53.452Z,3.37
2019-03-03T15:31:22.497Z,3.57
2019-03-03T15:33:51.596Z,3.60
2019-03-03T15:36:20.645Z,3.30
2019-03-03T15:38:49.532Z,3.20
2019-03-03T15:41:18.736Z,3.53
2019-03-03T15:43:47.749Z,3.23
2019-03-03T15:46:16.615Z,3.30
2019-03-03T15:48:45.410Z,3.50
2019-03-03T15:51:14.228Z,2.90
2019-03-03T15:53:43.456Z,2.80
2019-03-03T15:56:12.437Z,3.27
2019-03-03T15:58:41.841Z,2.80
2019-03-03T16:01:14.992Z,2.97
2019-03-03T16:03:44.980Z,2.80
2019-03-03T16:06:13.784Z,3.47
2019-03-03T16:08:42.567Z,3.10
2019-03-03T16:11:12.028Z,3.50
2019-03-03T16:13:41.611Z,3.40
2019-03-03T16:16:11.741Z,2.90
2019-03-03T16:18:40.855Z,3.20
2019-03-03T16:21:10.003Z,3.37
2019-03-03T16:23:39.424Z,3.70
2019-03-03T16:26:08.656Z,4.00
2019-03-03T16:28:37.479Z,3.47
2019-03-03T16:31:06.640Z,4.13
2019-03-03T16:33:35.797Z,3.30
2019-03-03T16:36:04.956Z,3.80
2019-03-03T16:38:34.068Z,3.30
2019-03-03T16:41:03.115Z,3.13
2019-03-03T16:43:32.150Z,4.13
2019-03-03T16:46:01.165Z,3.23
2019-03-03T16:48:29.979Z,3.60
2019-03-03T16:50:59.137Z,3.60
2019-03-03T16:53:28.710Z,3.00
2019-03-03T16:55:57.831Z,3.20
2019-03-03T16:58:26.617Z,3.20
2019-03-03T17:00:55.513Z,3.00
2019-03-03T17:03:24.888Z,3.30
2019-03-03T17:05:53.780Z,3.60
2019-03-03T17:08:22.843Z,3.33
2019-03-03T17:10:51.643Z,3.70
2019-03-03T17:13:21.262Z,3.60
2019-03-03T17:15:50.965Z,3.93
2019-03-03T17:18:20.195Z,2.97
2019-03-03T17:20:51.792Z,3.13
2019-03-03T17:23:21.277Z,3.27
2019-03-03T17:25:51.404Z,3.30
2019-03-03T17:28:21.276Z,3.60
2019-03-03T17:30:50.492Z,3.40
2019-03-03T17:33:19.492Z,4.97
2019-03-03T17:35:49.312Z,3.60
2019-03-03T17:38:18.472Z,3.80
2019-03-03T17:40:47.573Z,3.33
2019-03-03T17:43:16.634Z,3.33
2019-03-03T17:45:45.747Z,3.60
2019-03-03T17:48:15.347Z,3.00
2019-03-03T17:50:44.816Z,3.43
2019-03-03T17:53:13.761Z,3.67
2019-03-03T17:55:42.829Z,3.70
2019-03-03T17:58:11.993Z,3.20
2019-03-03T18:00:42.364Z,3.70
2019-03-03T18:03:11.924Z,3.60
2019-03-03T18:05:41.415Z,2.93
2019-03-03T18:08:10.256Z,3.37
2019-03-03T18:10:39.407Z,3.10
2019-03-03T18:13:08.293Z,3.30
2019-03-03T18:15:37.909Z,3.20
2019-03-03T18:18:06.892Z,3.20
2019-03-03T18:20:36.252Z,2.73
2019-03-03T18:23:05.720Z,3.47
2019-03-03T18:25:35.076Z,3.10
2019-03-03T18:28:04.438Z,3.30
2019-03-03T18:30:33.661Z,3.33
2019-03-03T18:33:02.455Z,3.43
2019-03-03T18:35:31.287Z,3.37
2019-03-03T18:38:00.456Z,3.33
2019-03-03T18:40:29.665Z,3.83
2019-03-03T18:42:59.027Z,3.13
2019-03-03T18:45:28.041Z,3.60
2019-03-03T18:47:57.159Z,3.00
2019-03-03T18:50:26.056Z,4.10
2019-03-03T18:52:55.411Z,3.53
2019-03-03T18:55:24.579Z,3.70
2019-03-03T18:57:53.957Z,3.03
2019-03-03T19:00:24.610Z,2.97
2019-03-03T19:02:53.897Z,3.50
2019-03-03T19:05:23.210Z,3.07
2019-03-03T19:07:52.519Z,2.97
2019-03-03T19:10:22.332Z,3.40
2019-03-03T19:12:51.626Z,3.50
2019-03-03T19:15:20.889Z,3.90
2019-03-03T19:17:49.835Z,3.47
2019-03-03T19:20:19.186Z,3.00
2019-03-03T19:22:48.148Z,3.83
2019-03-03T19:25:17.104Z,3.03
2019-03-03T19:27:46.394Z,2.60
2019-03-03T19:30:20.284Z,5.17
2019-03-03T19:32:58.849Z,2.53
2019-03-03T19:35:28.376Z,2.93
2019-03-03T19:37:57.319Z,2.70
2019-03-03T19:40:26.829Z,4.30
2019-03-03T19:42:56.148Z,3.23
2019-03-03T19:45:26.919Z,2.40
2019-03-03T19:47:56.307Z,2.50
2019-03-03T19:50:25.636Z,2.60
2019-03-03T19:52:54.748Z,3.03
2019-03-03T19:55:24.053Z,3.00
2019-03-03T19:57:53.068Z,2.77
2019-03-03T20:00:35.507Z,2.87
2019-03-03T20:02:58.944Z,2.70
2019-03-03T20:05:28.098Z,3.20
2019-03-03T20:07:57.567Z,2.50
2019-03-03T20:10:26.988Z,2.70
2019-03-03T20:12:56.069Z,2.77
2019-03-03T20:15:25.011Z,2.60
2019-03-03T20:17:54.231Z,2.90
2019-03-03T20:20:23.119Z,3.03
2019-03-03T20:22:52.188Z,2.60
2019-03-03T20:25:21.420Z,2.40
2019-03-03T20:27:50.410Z,2.70
2019-03-03T20:30:19.861Z,2.97
2019-03-03T20:32:49.138Z,2.70
2019-03-03T20:35:18.437Z,2.67
2019-03-03T20:37:47.695Z,2.60
2019-03-03T20:40:16.697Z,5.07
2019-03-03T20:42:45.668Z,4.23
2019-03-03T20:45:16.653Z,2.50
2019-03-03T20:47:45.536Z,2.40
2019-03-03T20:50:16.930Z,2.30
2019-03-03T20:52:46.283Z,2.50
2019-03-03T20:55:16.247Z,2.57
2019-03-03T20:57:45.475Z,2.50
2019-03-03T21:00:17.248Z,2.73
2019-03-03T21:02:46.433Z,2.90
2019-03-03T21:05:15.892Z,2.70
2019-03-03T21:07:51.398Z,2.60
2019-03-03T21:10:17.324Z,2.40
2019-03-03T21:12:46.362Z,2.40
2019-03-03T21:15:15.388Z,2.60
2019-03-03T21:17:44.478Z,2.40
2019-03-03T21:20:14.869Z,2.70
2019-03-03T21:22:44.131Z,2.50
2019-03-03T21:25:13.728Z,2.53
2019-03-03T21:27:43.020Z,2.30
2019-03-03T21:30:14.434Z,2.63
2019-03-03T21:32:43.391Z,2.47
2019-03-03T21:35:12.594Z,2.90
2019-03-03T21:37:41.880Z,2.80
2019-03-03T21:40:12.052Z,2.20
2019-03-03T21:42:40.864Z,2.50
2019-03-03T21:45:10.960Z,2.70
2019-03-03T21:47:40.102Z,2.80
2019-03-03T21:50:11.220Z,2.60
2019-03-03T21:52:40.882Z,2.77
2019-03-03T21:55:10.113Z,2.80
2019-03-03T21:57:39.429Z,2.80
